createdAt,value
2023-01-15T00:03:19.005Z,1
2023-01-15T00:08:22.685Z,1.1
2023-01-15T00:13:21.420Z,1.1
2023-01-15T00:18:23.446Z,1.1
2023-01-15T00:23:25.523Z,1
2023-01-15T00:28:27.458Z,0.9
2023-01-15T00:33:29.504Z,1
2023-01-15T00:38:31.915Z,1.1
2023-01-15T00:43:33.887Z,1
2023-01-15T00:48:35.899Z,1
2023-01-15T00:53:37.980Z,1.1
2023-01-15T00:58:40.500Z,1.2
2023-01-15T01:03:42.613Z,1.2
2023-01-15T01:08:44.760Z,1.2
2023-01-15T01:13:46.986Z,1.2
2023-01-15T01:18:49.022Z,1.2
2023-01-15T01:28:51.591Z,1.3
2023-01-15T01:33:53.738Z,1.4
2023-01-15T01:38:55.727Z,1.4
2023-01-15T01:43:57.754Z,1.4
2023-01-15T01:48:59.715Z,2.6
2023-01-15T01:54:01.779Z,2.7
2023-01-15T01:59:03.893Z,2.7
2023-01-15T02:04:06.012Z,2.6
2023-01-15T02:09:07.988Z,3
2023-01-15T02:14:10.217Z,3.1
2023-01-15T02:19:12.237Z,3
2023-01-15T02:24:14.448Z,3
2023-01-15T02:29:16.513Z,3
2023-01-15T02:34:18.605Z,3
2023-01-15T02:39:20.643Z,2.9
2023-01-15T02:44:22.634Z,3
2023-01-15T02:49:24.657Z,2.9
2023-01-15T02:54:26.588Z,3
2023-01-15T02:59:28.601Z,3
2023-01-15T03:04:30.637Z,3
2023-01-15T03:14:33.295Z,3
2023-01-15T03:19:35.409Z,3.1
2023-01-15T03:24:37.424Z,3
2023-01-15T03:29:39.381Z,3
2023-01-15T03:34:41.412Z,3
2023-01-15T03:39:43.466Z,3
2023-01-15T03:44:45.592Z,3.1
2023-01-15T03:49:47.594Z,3.1
2023-01-15T03:54:49.793Z,3.1
2023-01-15T03:59:51.803Z,3
2023-01-15T04:04:53.917Z,3.1
2023-01-15T04:09:55.895Z,3.1
2023-01-15T04:14:58.558Z,3.2
2023-01-15T04:20:00.605Z,3.2
2023-01-15T04:25:02.639Z,3.3
2023-01-15T04:30:04.733Z,3.4
2023-01-15T04:35:06.790Z,3.4
2023-01-15T04:40:08.791Z,3.5
2023-01-15T04:45:10.755Z,3.5
2023-01-15T04:50:12.821Z,3.6
2023-01-15T04:55:15.115Z,3.6
2023-01-15T05:00:17.292Z,3.6
2023-01-15T05:05:19.397Z,3.7
2023-01-15T05:10:21.426Z,3.7
2023-01-15T05:15:23.700Z,3.5
2023-01-15T05:20:25.837Z,3.5
2023-01-15T05:25:27.830Z,3.5
2023-01-15T05:30:29.858Z,3.5
2023-01-15T05:35:32.309Z,3.5
2023-01-15T05:40:34.398Z,3.5
2023-01-15T05:45:36.517Z,3.6
2023-01-15T05:50:38.636Z,3.6
2023-01-15T05:55:43.330Z,3.6
2023-01-15T06:00:45.392Z,3.5
2023-01-15T06:05:47.380Z,3.6
2023-01-15T06:10:49.418Z,3.6
2023-01-15T06:15:51.772Z,3.7
2023-01-15T06:20:53.924Z,3.6
2023-01-15T06:25:56.023Z,3.6
2023-01-15T06:30:58.006Z,3.5
2023-01-15T06:36:00.029Z,3.6
2023-01-15T06:41:02.044Z,3.6
2023-01-15T06:46:04.326Z,3.6
2023-01-15T06:51:06.428Z,3.7
2023-01-15T06:56:08.540Z,3.7
2023-01-15T07:01:11.160Z,3.8
2023-01-15T07:06:13.464Z,3.7
2023-01-15T07:11:15.571Z,3.8
2023-01-15T07:16:17.772Z,3.8
2023-01-15T07:21:19.896Z,3.8
2023-01-15T07:26:22.046Z,3.8
2023-01-15T07:31:25.501Z,3.8
2023-01-15T07:36:27.473Z,3.7
2023-01-15T07:41:29.724Z,3.8
2023-01-15T07:46:32.041Z,3.8
2023-01-15T07:51:34.221Z,3.8
2023-01-15T07:56:36.471Z,3.9
2023-01-15T08:01:39.096Z,3.6
2023-01-15T08:06:41.560Z,3.6
2023-01-15T08:11:44.666Z,3.6
2023-01-15T08:16:47.163Z,3.5
2023-01-15T08:21:49.166Z,3.4
2023-01-15T08:26:52.048Z,3.7
2023-01-15T08:31:55.676Z,3.7
2023-01-15T08:36:57.755Z,3.6
2023-01-15T08:41:59.758Z,3.8
2023-01-15T08:47:01.842Z,3.9
2023-01-15T08:52:04.349Z,3.9
2023-01-15T08:57:06.423Z,4
2023-01-15T09:02:08.928Z,4.2
2023-01-15T09:07:11.655Z,4.2
2023-01-15T09:12:13.956Z,4.2
2023-01-15T09:17:16.251Z,4.4
2023-01-15T09:22:18.237Z,4.4
2023-01-15T09:27:23.783Z,4.7
2023-01-15T09:32:25.850Z,4.6
2023-01-15T09:37:27.879Z,4.7
2023-01-15T09:42:31.364Z,4.8
2023-01-15T09:47:33.353Z,4.9
2023-01-15T09:52:35.334Z,5.4
2023-01-15T09:57:37.330Z,5.7
2023-01-15T10:02:39.281Z,5.6
2023-01-15T10:07:41.313Z,5.9
2023-01-15T10:12:43.354Z,6.6
2023-01-15T10:17:50.325Z,6.4
2023-01-15T10:22:52.484Z,6.3
2023-01-15T10:27:55.924Z,6.4
2023-01-15T10:33:04.721Z,10.5
2023-01-15T10:38:06.729Z,10.5
2023-01-15T10:43:08.760Z,9.9
2023-01-15T10:48:10.809Z,9.9
2023-01-15T10:53:13.137Z,10
2023-01-15T11:03:16.621Z,13.1
2023-01-15T11:09:12.259Z,11.6
2023-01-15T11:13:24.569Z,11.1
2023-01-15T11:18:26.663Z,10.2
2023-01-15T11:23:28.694Z,10.5
2023-01-15T11:28:30.770Z,11.3
2023-01-15T11:33:32.764Z,13.1
2023-01-15T11:38:34.766Z,14.2
2023-01-15T11:43:37.006Z,13.7
2023-01-15T11:48:38.922Z,14.3
2023-01-15T11:53:42.007Z,12.8
2023-01-15T11:58:44.134Z,12.7
2023-01-15T12:03:46.837Z,12.5
2023-01-15T12:08:48.998Z,12.4
2023-01-15T12:13:50.970Z,12.7
2023-01-15T12:18:53.010Z,13.3
2023-01-15T12:23:54.971Z,12
2023-01-15T12:28:58.576Z,11.5
2023-01-15T12:34:01.187Z,11
2023-01-15T12:39:03.353Z,10.9
2023-01-15T12:44:06.197Z,10.3
2023-01-15T12:49:08.173Z,10.3
2023-01-15T12:54:10.214Z,9.6
2023-01-15T12:59:12.356Z,9.6
2023-01-15T13:04:14.327Z,9.2
2023-01-15T13:09:16.309Z,9.6
2023-01-15T13:14:18.352Z,9.3
2023-01-15T13:19:20.434Z,8.9
2023-01-15T13:24:22.830Z,8.5
2023-01-15T13:29:26.529Z,8.4
2023-01-15T13:34:28.699Z,8.4
2023-01-15T13:39:30.790Z,8.5
2023-01-15T13:44:32.895Z,8.3
2023-01-15T13:49:34.950Z,8.5
2023-01-15T13:54:38.105Z,8.4
2023-01-15T13:59:40.167Z,8.4
2023-01-15T14:04:42.259Z,8.2
2023-01-15T14:09:44.660Z,8.2
2023-01-15T14:14:46.813Z,8.1
2023-01-15T14:19:49.868Z,7.9
2023-01-15T14:24:52.425Z,7.8
2023-01-15T14:29:54.499Z,7.8
2023-01-15T14:34:56.484Z,7.7
2023-01-15T14:39:58.530Z,7.6
2023-01-15T14:45:01.015Z,7.5
2023-01-15T14:50:03.258Z,7.4
2023-01-15T14:55:06.511Z,7.2
2023-01-15T15:00:08.816Z,7.2
2023-01-15T15:05:10.955Z,7.1
2023-01-15T15:10:13.201Z,7
2023-01-15T15:15:15.379Z,6.9
2023-01-15T15:20:17.486Z,6.9
2023-01-15T15:25:19.679Z,6.8
2023-01-15T15:30:21.819Z,6.8
2023-01-15T15:35:24.002Z,6.7
2023-01-15T15:40:26.241Z,6.7
2023-01-15T15:45:30.063Z,6.6
2023-01-15T15:50:32.208Z,6.6
2023-01-15T15:55:34.311Z,6.5
2023-01-15T16:00:37.074Z,6.4
2023-01-15T16:05:39.181Z,6.4
2023-01-15T16:10:41.674Z,6.4
2023-01-15T16:15:44.441Z,6.4
2023-01-15T16:20:47.305Z,6.4
2023-01-15T16:25:49.221Z,6.4
2023-01-15T16:30:51.310Z,6.4
2023-01-15T16:35:53.464Z,6.4
2023-01-15T16:40:55.727Z,6.4
2023-01-15T16:45:57.868Z,6.4
2023-01-15T16:51:00.067Z,6.4
2023-01-15T16:56:04.864Z,6.5
2023-01-15T17:01:07.111Z,6.4
2023-01-15T17:06:09.277Z,6.5
2023-01-15T17:11:11.409Z,6.5
2023-01-15T17:16:14.080Z,6.5
2023-01-15T17:21:16.804Z,6.5
2023-01-15T17:26:18.849Z,6.5
2023-01-15T17:31:25.824Z,6.6
2023-01-15T17:36:27.957Z,6.6
2023-01-15T17:41:30.273Z,6.5
2023-01-15T17:46:33.448Z,6.6
2023-01-15T17:51:35.864Z,6.5
2023-01-15T17:56:38.023Z,6.5
2023-01-15T18:01:42.014Z,6.5
2023-01-15T18:11:46.796Z,6.6
2023-01-15T18:16:49.036Z,6.5
2023-01-15T18:21:51.549Z,6.6
2023-01-15T18:26:53.721Z,6.6
2023-01-15T18:31:55.883Z,6.6
2023-01-15T18:36:58.939Z,6.7
2023-01-15T18:42:01.265Z,6.7
2023-01-15T18:47:04.834Z,6.8
2023-01-15T18:52:07.585Z,6.7
2023-01-15T18:57:10.119Z,6.7
2023-01-15T19:02:12.340Z,6.6
2023-01-15T19:07:14.519Z,6.5
2023-01-15T19:12:22.588Z,6.5
2023-01-15T19:17:25.150Z,6.5
2023-01-15T19:22:28.217Z,6.4
2023-01-15T19:27:30.309Z,6.4
2023-01-15T19:32:33.620Z,6.4
2023-01-15T19:37:35.786Z,6.3
2023-01-15T19:42:37.740Z,6.4
2023-01-15T19:47:39.840Z,6.4
2023-01-15T19:52:41.948Z,6.4
2023-01-15T19:57:44.732Z,6.4
2023-01-15T20:02:46.926Z,6.3
2023-01-15T20:07:49.185Z,6.3
2023-01-15T20:12:51.593Z,6.3
2023-01-15T20:17:53.845Z,6.4
2023-01-15T20:22:56.883Z,6.4
2023-01-15T20:27:59.038Z,6.3
2023-01-15T20:33:01.287Z,6.4
2023-01-15T20:38:03.555Z,6.3
2023-01-15T20:43:05.812Z,6.3
2023-01-15T20:48:08.276Z,6.4
2023-01-15T20:53:10.818Z,6.3
2023-01-15T20:58:13.465Z,6.4
2023-01-15T21:03:17.993Z,6.4
2023-01-15T21:08:20.105Z,6.4
2023-01-15T21:13:22.495Z,6.4
2023-01-15T21:18:24.688Z,6.4
2023-01-15T21:23:27.051Z,6.4
2023-01-15T21:28:32.122Z,6.4
2023-01-15T21:33:34.408Z,6.4
2023-01-15T21:38:36.973Z,6.4
2023-01-15T21:43:39.122Z,6.3
2023-01-15T21:48:41.349Z,6.3
2023-01-15T21:53:43.514Z,6.4
2023-01-15T21:58:47.386Z,6.3
2023-01-15T22:03:49.612Z,6.3
2023-01-15T22:08:53.933Z,6.3
2023-01-15T22:13:56.202Z,6.3
2023-01-15T22:18:58.305Z,6.3
2023-01-15T22:24:00.589Z,6.1
2023-01-15T22:29:04.085Z,6
2023-01-15T22:34:06.333Z,5.9
2023-01-15T22:39:08.665Z,5.9
2023-01-15T22:44:10.740Z,5.8
2023-01-15T22:49:13.050Z,5.8
2023-01-15T22:54:15.189Z,5.7
2023-01-15T22:59:19.102Z,5.6
2023-01-15T23:04:21.648Z,5.4
2023-01-15T23:14:26.710Z,5.3
2023-01-15T23:19:29.259Z,5.1
2023-01-15T23:24:31.708Z,5.1
2023-01-15T23:29:33.992Z,5
2023-01-15T23:34:36.271Z,4.9
2023-01-15T23:39:38.461Z,4.9
2023-01-15T23:44:40.581Z,4.9
2023-01-15T23:49:42.673Z,4.9
2023-01-15T23:54:44.717Z,4.8
2023-01-15T23:59:46.743Z,4.8
